createdAt,value
2023-07-23T00:01:08.941Z,100.00
2023-07-23T00:03:35.649Z,100.00
2023-07-23T00:06:02.275Z,100.00
2023-07-23T00:08:28.861Z,100.00
2023-07-23T00:10:58.910Z,100.00
2023-07-23T00:13:26.247Z,100.00
2023-07-23T00:15:52.909Z,100.00
2023-07-23T00:18:19.582Z,100.00
2023-07-23T00:20:47.458Z,100.00
2023-07-23T00:23:14.042Z,100.00
2023-07-23T00:25:40.524Z,100.00
2023-07-23T00:28:07.918Z,100.00
2023-07-23T00:30:34.692Z,100.00
2023-07-23T00:33:01.317Z,100.00
2023-07-23T00:35:29.731Z,100.00
2023-07-23T00:37:56.266Z,100.00
2023-07-23T00:40:22.912Z,100.00
2023-07-23T00:42:49.428Z,100.00
2023-07-23T00:45:16.143Z,100.00
2023-07-23T00:47:46.831Z,100.00
2023-07-23T00:50:15.564Z,100.00
2023-07-23T00:52:43.891Z,100.00
2023-07-23T00:55:10.509Z,100.00
2023-07-23T00:57:37.031Z,100.00
2023-07-23T01:00:06.667Z,100.00
2023-07-23T01:02:33.672Z,100.00
2023-07-23T01:05:00.958Z,100.00
2023-07-23T01:07:30.686Z,100.00
2023-07-23T01:09:57.797Z,100.00
2023-07-23T01:12:25.231Z,100.00
2023-07-23T01:14:51.850Z,100.00
2023-07-23T01:17:20.159Z,100.00
2023-07-23T01:19:47.455Z,100.00
2023-07-23T01:22:14.138Z,100.00
2023-07-23T01:24:40.750Z,100.00
2023-07-23T01:27:07.837Z,100.00
2023-07-23T01:29:34.582Z,100.00
2023-07-23T01:32:01.186Z,100.00
2023-07-23T01:34:28.444Z,100.00
2023-07-23T01:36:56.323Z,100.00
2023-07-23T01:39:22.954Z,100.00
2023-07-23T01:41:49.615Z,100.00
2023-07-23T01:44:16.370Z,100.00
2023-07-23T01:46:42.914Z,100.00
2023-07-23T01:49:09.631Z,100.00
2023-07-23T01:51:36.131Z,100.00
2023-07-23T01:54:02.661Z,100.00
2023-07-23T01:56:29.186Z,100.00
2023-07-23T01:58:55.811Z,100.00
2023-07-23T02:01:22.530Z,100.00
2023-07-23T02:03:49.321Z,100.00
2023-07-23T02:06:15.931Z,100.00
2023-07-23T02:08:42.530Z,100.00
2023-07-23T02:11:09.052Z,100.00
2023-07-23T02:13:35.515Z,100.00
2023-07-23T02:16:02.176Z,100.00
2023-07-23T02:18:29.464Z,100.00
2023-07-23T02:20:56.085Z,100.00
2023-07-23T02:23:22.890Z,100.00
2023-07-23T02:25:50.170Z,100.00
2023-07-23T02:28:17.631Z,100.00
2023-07-23T02:30:44.703Z,100.00
2023-07-23T02:33:11.281Z,100.00
2023-07-23T02:35:38.168Z,100.00
2023-07-23T02:38:05.082Z,100.00
2023-07-23T02:40:34.162Z,100.00
2023-07-23T02:43:02.143Z,100.00
2023-07-23T02:45:32.797Z,100.00
2023-07-23T02:47:59.608Z,100.00
2023-07-23T02:50:27.013Z,100.00
2023-07-23T02:52:54.173Z,100.00
2023-07-23T02:55:21.033Z,100.00
2023-07-23T02:57:47.789Z,100.00
2023-07-23T03:00:14.700Z,100.00
2023-07-23T03:02:41.427Z,100.00
2023-07-23T03:05:09.192Z,100.00
2023-07-23T03:07:35.994Z,100.00
2023-07-23T03:10:03.892Z,100.00
2023-07-23T03:12:30.743Z,100.00
2023-07-23T03:14:58.314Z,100.00
2023-07-23T03:17:24.858Z,100.00
2023-07-23T03:19:52.167Z,100.00
2023-07-23T03:22:19.041Z,100.00
2023-07-23T03:24:47.318Z,100.00
2023-07-23T03:27:13.872Z,100.00
2023-07-23T03:29:40.530Z,100.00
2023-07-23T03:32:07.616Z,100.00
2023-07-23T03:34:34.543Z,100.00
2023-07-23T03:37:01.085Z,100.00
2023-07-23T03:39:27.601Z,100.00
2023-07-23T03:41:54.167Z,100.00
2023-07-23T03:44:20.761Z,100.00
2023-07-23T03:47:20.648Z,100.00
2023-07-23T03:49:48.028Z,100.00
2023-07-23T03:52:14.828Z,100.00
2023-07-23T03:54:41.338Z,100.00
2023-07-23T03:57:08.054Z,100.00
2023-07-23T03:59:42.803Z,100.00
2023-07-23T04:02:10.342Z,100.00
2023-07-23T04:04:38.114Z,100.00
2023-07-23T04:07:05.674Z,100.00
2023-07-23T04:09:32.655Z,100.00
2023-07-23T04:11:59.417Z,100.00
2023-07-23T04:14:26.486Z,100.00
2023-07-23T04:16:54.702Z,100.00
2023-07-23T04:19:21.358Z,100.00
2023-07-23T04:21:48.098Z,100.00
2023-07-23T04:24:14.813Z,100.00
2023-07-23T04:26:41.559Z,100.00
2023-07-23T04:29:09.363Z,100.00
2023-07-23T04:31:36.097Z,100.00
2023-07-23T04:34:02.758Z,100.00
2023-07-23T04:36:29.635Z,100.00
2023-07-23T04:38:56.276Z,100.00
2023-07-23T04:41:22.783Z,100.00
2023-07-23T04:43:49.358Z,100.00
2023-07-23T04:46:15.954Z,100.00
2023-07-23T04:48:42.630Z,100.00
2023-07-23T04:51:10.100Z,100.00
2023-07-23T04:53:36.804Z,100.00
2023-07-23T04:56:05.421Z,100.00
2023-07-23T04:58:33.056Z,100.00
2023-07-23T05:01:05.771Z,100.00
2023-07-23T05:03:32.660Z,100.00
2023-07-23T05:06:05.473Z,100.00
2023-07-23T05:08:33.400Z,100.00
2023-07-23T05:11:01.427Z,100.00
2023-07-23T05:13:29.220Z,100.00
2023-07-23T05:15:56.331Z,100.00
2023-07-23T05:18:24.418Z,100.00
2023-07-23T05:20:51.212Z,100.00
2023-07-23T05:23:19.017Z,100.00
2023-07-23T05:25:45.766Z,100.00
2023-07-23T05:28:12.710Z,100.00
2023-07-23T05:30:40.552Z,100.00
2023-07-23T05:33:08.949Z,100.00
2023-07-23T05:35:36.385Z,100.00
2023-07-23T05:38:03.109Z,100.00
2023-07-23T05:40:31.639Z,100.00
2023-07-23T05:43:00.610Z,100.00
2023-07-23T05:45:27.136Z,100.00
2023-07-23T05:47:53.663Z,100.00
2023-07-23T05:50:20.205Z,100.00
2023-07-23T05:52:46.801Z,100.00
2023-07-23T05:55:13.317Z,100.00
2023-07-23T05:57:39.987Z,100.00
2023-07-23T06:00:07.114Z,100.00
2023-07-23T06:02:38.177Z,100.00
2023-07-23T06:05:06.427Z,100.00
2023-07-23T06:07:33.158Z,100.00
2023-07-23T06:09:59.759Z,100.00
2023-07-23T06:12:26.248Z,100.00
2023-07-23T06:14:52.884Z,100.00
2023-07-23T06:17:19.617Z,100.00
2023-07-23T06:19:46.172Z,100.00
2023-07-23T06:22:13.618Z,100.00
2023-07-23T06:24:40.241Z,100.00
2023-07-23T06:27:07.057Z,100.00
2023-07-23T06:29:33.632Z,100.00
2023-07-23T06:32:00.254Z,100.00
2023-07-23T06:34:26.769Z,100.00
2023-07-23T06:36:53.431Z,100.00
2023-07-23T06:39:21.126Z,100.00
2023-07-23T06:41:47.931Z,100.00
2023-07-23T06:44:15.721Z,100.00
2023-07-23T06:46:42.390Z,100.00
2023-07-23T06:49:09.931Z,100.00
2023-07-23T06:51:36.459Z,100.00
2023-07-23T06:54:03.022Z,100.00
2023-07-23T06:56:29.578Z,100.00
2023-07-23T06:58:56.144Z,100.00
2023-07-23T07:01:23.310Z,100.00
2023-07-23T07:03:50.008Z,100.00
2023-07-23T07:06:16.843Z,100.00
2023-07-23T07:08:45.151Z,100.00
2023-07-23T07:11:11.772Z,100.00
2023-07-23T07:13:39.766Z,100.00
2023-07-23T07:16:06.423Z,100.00
2023-07-23T07:18:33.107Z,100.00
2023-07-23T07:21:01.350Z,100.00
2023-07-23T07:23:28.984Z,100.00
2023-07-23T07:25:56.963Z,100.00
2023-07-23T07:28:25.522Z,100.00
2023-07-23T07:30:52.258Z,100.00
2023-07-23T07:33:18.808Z,100.00
2023-07-23T07:35:45.420Z,100.00
2023-07-23T07:38:11.917Z,100.00
2023-07-23T07:40:41.924Z,100.00
2023-07-23T07:46:03.300Z,100.00
2023-07-23T07:48:31.204Z,100.00
2023-07-23T07:51:50.653Z,100.00
2023-07-23T07:54:21.270Z,100.00
2023-07-23T07:56:48.882Z,100.00
2023-07-23T07:59:15.667Z,100.00
2023-07-23T08:01:42.455Z,100.00
2023-07-23T08:04:11.117Z,100.00
2023-07-23T08:06:39.065Z,100.00
2023-07-23T08:09:09.728Z,100.00
2023-07-23T08:11:38.234Z,100.00
2023-07-23T08:14:05.168Z,100.00
2023-07-23T08:16:32.407Z,100.00
2023-07-23T08:18:59.565Z,100.00
2023-07-23T08:21:26.641Z,100.00
2023-07-23T08:23:53.669Z,100.00
2023-07-23T08:26:21.862Z,100.00
2023-07-23T08:28:58.473Z,100.00
2023-07-23T08:31:25.635Z,100.00
2023-07-23T08:33:53.138Z,100.00
2023-07-23T08:36:20.104Z,100.00
2023-07-23T08:38:46.962Z,100.00
2023-07-23T08:41:38.911Z,100.00
2023-07-23T08:44:11.327Z,100.00
2023-07-23T08:46:47.836Z,100.00
2023-07-23T08:49:18.554Z,100.00
2023-07-23T08:51:47.621Z,100.00
2023-07-23T08:54:16.851Z,100.00
2023-07-23T08:56:45.271Z,100.00
2023-07-23T08:59:12.860Z,100.00
2023-07-23T09:01:41.323Z,100.00
2023-07-23T09:04:11.353Z,100.00
2023-07-23T09:06:38.116Z,100.00
2023-07-23T09:09:10.050Z,100.00
2023-07-23T09:11:37.838Z,100.00
2023-07-23T09:14:17.145Z,100.00
2023-07-23T09:16:48.512Z,100.00
2023-07-23T09:19:23.518Z,100.00
2023-07-23T09:21:51.028Z,100.00
2023-07-23T09:24:18.033Z,100.00
2023-07-23T09:26:47.408Z,100.00
2023-07-23T09:29:15.639Z,100.00
2023-07-23T09:31:46.315Z,100.00
2023-07-23T09:34:13.222Z,100.00
2023-07-23T09:36:41.056Z,100.00
2023-07-23T09:39:08.162Z,100.00
2023-07-23T09:41:37.366Z,100.00
2023-07-23T09:44:03.965Z,100.00
2023-07-23T09:46:31.342Z,100.00
2023-07-23T09:48:57.918Z,100.00
2023-07-23T09:51:25.122Z,100.00
2023-07-23T09:53:52.369Z,100.00
2023-07-23T09:56:21.649Z,100.00
2023-07-23T09:58:51.598Z,100.00
2023-07-23T10:01:19.677Z,100.00
2023-07-23T10:03:48.431Z,100.00
2023-07-23T10:06:17.022Z,100.00
2023-07-23T10:08:45.245Z,100.00
2023-07-23T10:11:16.832Z,100.00
2023-07-23T10:13:44.155Z,100.00
2023-07-23T10:16:19.975Z,100.00
2023-07-23T10:18:48.727Z,100.00
2023-07-23T10:21:15.634Z,100.00
2023-07-23T10:23:42.647Z,100.00
2023-07-23T10:26:29.008Z,100.00
2023-07-23T10:29:07.796Z,100.00
2023-07-23T10:31:35.079Z,100.00
2023-07-23T10:34:01.588Z,100.00
2023-07-23T10:36:28.296Z,100.00
2023-07-23T10:39:19.357Z,100.00
2023-07-23T10:41:54.608Z,100.00
2023-07-23T10:44:25.641Z,100.00
2023-07-23T10:46:52.277Z,100.00
2023-07-23T10:49:24.955Z,100.00
2023-07-23T10:51:54.484Z,100.00
2023-07-23T10:54:22.104Z,100.00
2023-07-23T10:56:50.744Z,100.00
2023-07-23T10:59:21.117Z,100.00
2023-07-23T11:01:50.685Z,100.00
2023-07-23T11:04:25.285Z,100.00
2023-07-23T11:07:01.246Z,100.00
2023-07-23T11:09:30.344Z,100.00
2023-07-23T11:11:57.798Z,100.00
2023-07-23T11:14:29.143Z,100.00
2023-07-23T11:16:58.125Z,100.00
2023-07-23T11:19:26.211Z,100.00
2023-07-23T11:21:57.569Z,100.00
2023-07-23T11:24:28.837Z,100.00
2023-07-23T11:27:00.044Z,100.00
2023-07-23T11:29:27.217Z,100.00
2023-07-23T11:31:55.428Z,100.00
2023-07-23T11:34:24.513Z,99.56
2023-07-23T11:36:54.113Z,99.90
2023-07-23T11:39:22.839Z,98.69
2023-07-23T11:41:49.337Z,100.00
2023-07-23T11:44:15.993Z,100.00
2023-07-23T11:46:42.968Z,99.31
2023-07-23T11:49:12.223Z,99.83
2023-07-23T11:51:40.385Z,98.99
2023-07-23T11:54:11.871Z,98.58
2023-07-23T11:56:39.694Z,98.66
2023-07-23T11:59:08.074Z,97.77
2023-07-23T12:01:36.733Z,98.06
2023-07-23T12:04:05.178Z,98.97
2023-07-23T12:06:33.890Z,98.93
2023-07-23T12:09:01.211Z,98.91
2023-07-23T12:11:31.092Z,99.63
2023-07-23T12:13:59.028Z,97.91
2023-07-23T12:16:44.851Z,95.96
2023-07-23T12:19:14.281Z,95.57
2023-07-23T12:21:45.303Z,94.92
2023-07-23T12:24:25.772Z,95.28
2023-07-23T12:26:57.844Z,94.74
2023-07-23T12:29:26.097Z,95.32
2023-07-23T12:32:13.958Z,95.02
2023-07-23T12:34:43.492Z,93.85
2023-07-23T12:37:10.211Z,94.76
2023-07-23T12:39:36.884Z,93.90
2023-07-23T12:42:03.730Z,93.85
2023-07-23T12:44:31.197Z,92.36
2023-07-23T12:46:57.814Z,90.48
2023-07-23T12:49:24.485Z,88.66
2023-07-23T12:51:50.949Z,90.41
2023-07-23T12:54:17.448Z,89.30
2023-07-23T12:56:44.088Z,88.97
2023-07-23T12:59:10.649Z,86.82
2023-07-23T13:01:37.214Z,88.26
2023-07-23T13:04:04.139Z,88.16
2023-07-23T13:06:30.995Z,87.99
2023-07-23T13:08:57.883Z,87.95
2023-07-23T13:11:24.515Z,86.23
2023-07-23T13:13:51.729Z,86.84
2023-07-23T13:16:20.174Z,87.60
2023-07-23T13:18:47.586Z,85.84
2023-07-23T13:21:14.241Z,84.18
2023-07-23T13:23:40.867Z,85.86
2023-07-23T13:26:07.520Z,86.38
2023-07-23T13:28:34.253Z,87.55
2023-07-23T13:31:00.908Z,88.61
2023-07-23T13:33:27.493Z,90.16
2023-07-23T13:35:54.703Z,89.78
2023-07-23T13:38:22.892Z,90.23
2023-07-23T13:40:50.092Z,88.35
2023-07-23T13:43:16.594Z,88.99
2023-07-23T13:45:43.144Z,88.63
2023-07-23T13:48:09.875Z,85.81
2023-07-23T13:50:49.644Z,84.34
2023-07-23T13:53:18.189Z,81.38
2023-07-23T13:55:44.795Z,81.58
2023-07-23T13:58:11.364Z,80.19
2023-07-23T14:00:38.134Z,79.84
2023-07-23T14:03:05.064Z,77.94
2023-07-23T14:05:32.470Z,79.09
2023-07-23T14:07:59.268Z,77.65
2023-07-23T14:10:26.216Z,77.56
2023-07-23T14:12:52.767Z,74.93
2023-07-23T14:15:19.544Z,75.60
2023-07-23T14:17:46.144Z,74.94
2023-07-23T14:20:12.688Z,74.68
2023-07-23T14:22:39.373Z,75.34
2023-07-23T14:25:06.059Z,73.48
2023-07-23T14:27:32.560Z,73.21
2023-07-23T14:29:59.107Z,73.24
2023-07-23T14:32:25.717Z,72.33
2023-07-23T14:34:52.298Z,72.32
2023-07-23T14:37:18.941Z,71.59
2023-07-23T14:39:45.576Z,72.00
2023-07-23T14:42:12.440Z,71.94
2023-07-23T14:44:41.693Z,71.55
2023-07-23T14:47:08.836Z,71.56
2023-07-23T14:49:37.444Z,71.49
2023-07-23T14:52:04.871Z,72.38
2023-07-23T14:54:31.476Z,70.94
2023-07-23T14:56:58.026Z,69.70
2023-07-23T14:59:24.613Z,71.05
2023-07-23T15:01:51.285Z,71.03
2023-07-23T15:04:17.880Z,71.66
2023-07-23T15:06:44.481Z,72.66
2023-07-23T15:09:13.406Z,70.77
2023-07-23T15:11:41.475Z,71.45
2023-07-23T15:14:08.409Z,72.76
2023-07-23T15:16:35.280Z,72.68
2023-07-23T15:19:02.214Z,73.07
2023-07-23T15:21:29.432Z,72.73
2023-07-23T15:23:56.615Z,72.50
2023-07-23T15:26:27.647Z,72.56
2023-07-23T15:28:58.754Z,72.75
2023-07-23T15:31:25.637Z,72.46
2023-07-23T15:33:52.435Z,71.70
2023-07-23T15:36:19.219Z,72.32
2023-07-23T15:38:48.782Z,70.57
2023-07-23T15:41:15.348Z,69.69
2023-07-23T15:43:41.910Z,69.65
2023-07-23T15:46:08.404Z,70.03
2023-07-23T15:48:34.971Z,71.02
2023-07-23T15:51:01.514Z,69.78
2023-07-23T15:53:28.050Z,70.31
2023-07-23T15:55:54.541Z,70.42
2023-07-23T15:58:21.067Z,70.32
2023-07-23T16:00:47.622Z,69.65
2023-07-23T16:03:14.343Z,69.57
2023-07-23T16:05:41.365Z,69.06
2023-07-23T16:08:07.877Z,67.31
2023-07-23T16:10:34.432Z,68.61
2023-07-23T16:13:00.987Z,68.50
2023-07-23T16:15:27.569Z,68.95
2023-07-23T16:17:54.161Z,68.75
2023-07-23T16:20:20.849Z,68.38
2023-07-23T16:22:47.400Z,69.31
2023-07-23T16:25:15.015Z,69.24
2023-07-23T16:27:41.632Z,69.25
2023-07-23T16:30:08.936Z,69.56
2023-07-23T16:32:38.018Z,69.15
2023-07-23T16:35:05.497Z,69.48
2023-07-23T16:37:37.467Z,69.74
2023-07-23T16:40:05.876Z,69.50
2023-07-23T16:42:32.894Z,68.83
2023-07-23T16:45:03.132Z,68.47
2023-07-23T16:47:29.861Z,68.29
2023-07-23T16:49:57.090Z,69.61
2023-07-23T16:52:23.803Z,69.29
2023-07-23T16:54:51.712Z,68.80
2023-07-23T16:57:18.568Z,68.24
2023-07-23T16:59:45.138Z,68.63
2023-07-23T17:02:13.577Z,68.67
2023-07-23T17:04:40.827Z,69.36
2023-07-23T17:07:07.382Z,68.19
2023-07-23T17:09:33.950Z,67.47
2023-07-23T17:12:00.456Z,67.63
2023-07-23T17:14:26.962Z,67.28
2023-07-23T17:16:53.433Z,67.31
2023-07-23T17:19:19.981Z,67.62
2023-07-23T17:21:46.645Z,68.39
2023-07-23T17:24:13.482Z,68.29
2023-07-23T17:26:40.410Z,68.80
2023-07-23T17:29:07.428Z,69.17
2023-07-23T17:31:34.014Z,70.49
2023-07-23T17:34:00.758Z,71.75
2023-07-23T17:36:27.985Z,72.84
2023-07-23T17:38:54.804Z,74.02
2023-07-23T17:41:21.389Z,75.48
2023-07-23T17:43:48.732Z,76.32
2023-07-23T17:46:15.309Z,77.32
2023-07-23T17:48:42.002Z,77.83
2023-07-23T17:51:08.522Z,78.22
2023-07-23T17:53:38.211Z,79.09
2023-07-23T17:56:05.458Z,79.64
2023-07-23T17:58:32.024Z,80.11
2023-07-23T18:00:58.625Z,79.93
2023-07-23T18:03:25.378Z,80.92
2023-07-23T18:05:52.958Z,81.25
2023-07-23T18:08:19.926Z,81.54
2023-07-23T18:10:46.507Z,81.99
2023-07-23T18:13:13.154Z,81.69
2023-07-23T18:15:40.000Z,81.85
2023-07-23T18:18:06.593Z,82.36
2023-07-23T18:20:33.111Z,82.06
2023-07-23T18:22:59.704Z,82.55
2023-07-23T18:25:26.189Z,82.51
2023-07-23T18:27:52.773Z,82.64
2023-07-23T18:30:19.580Z,83.15
2023-07-23T18:32:46.242Z,83.77
2023-07-23T18:35:15.898Z,83.64
2023-07-23T18:37:42.480Z,83.72
2023-07-23T18:40:09.411Z,84.34
2023-07-23T18:42:35.913Z,84.49
2023-07-23T18:45:04.255Z,85.17
2023-07-23T18:47:30.802Z,85.63
2023-07-23T18:49:57.340Z,85.32
2023-07-23T18:52:26.360Z,85.59
2023-07-23T18:54:54.562Z,86.01
2023-07-23T18:57:21.065Z,86.54
2023-07-23T18:59:48.017Z,86.55
2023-07-23T19:02:14.586Z,86.19
2023-07-23T19:04:45.994Z,87.15
2023-07-23T19:07:14.020Z,86.86
2023-07-23T19:09:40.594Z,87.60
2023-07-23T19:12:07.979Z,87.21
2023-07-23T19:14:34.615Z,87.48
2023-07-23T19:17:01.237Z,87.86
2023-07-23T19:19:28.431Z,88.52
2023-07-23T19:21:55.063Z,87.87
2023-07-23T19:24:21.707Z,88.33
2023-07-23T19:26:48.293Z,89.17
2023-07-23T19:29:14.977Z,89.13
2023-07-23T19:31:42.577Z,89.48
2023-07-23T19:34:09.489Z,89.88
2023-07-23T19:36:38.618Z,90.43
2023-07-23T19:39:06.570Z,90.16
2023-07-23T19:41:33.944Z,90.60
2023-07-23T19:44:02.905Z,90.78
2023-07-23T19:46:29.579Z,90.40
2023-07-23T19:48:56.264Z,90.98
2023-07-23T19:51:22.950Z,90.93
2023-07-23T19:53:49.554Z,90.34
2023-07-23T19:56:16.119Z,91.03
2023-07-23T19:58:42.706Z,90.87
2023-07-23T20:01:09.259Z,91.67
2023-07-23T20:03:35.857Z,91.16
2023-07-23T20:06:02.431Z,91.92
2023-07-23T20:08:29.039Z,92.37
2023-07-23T20:10:55.602Z,91.99
2023-07-23T20:13:22.126Z,92.12
2023-07-23T20:15:50.204Z,92.24
2023-07-23T20:18:16.899Z,92.56
2023-07-23T20:20:49.625Z,92.89
2023-07-23T20:23:17.029Z,93.09
2023-07-23T20:25:50.528Z,93.69
2023-07-23T20:28:17.275Z,93.63
2023-07-23T20:30:44.041Z,93.97
2023-07-23T20:33:10.872Z,94.57
2023-07-23T20:35:37.723Z,94.46
2023-07-23T20:38:04.631Z,95.21
2023-07-23T20:40:31.537Z,95.25
2023-07-23T20:42:58.305Z,94.85
2023-07-23T20:45:24.939Z,94.99
2023-07-23T20:47:51.538Z,95.15
2023-07-23T20:50:18.327Z,94.98
2023-07-23T20:52:44.973Z,95.19
2023-07-23T20:55:11.464Z,95.46
2023-07-23T20:57:38.015Z,95.80
2023-07-23T21:00:05.462Z,95.74
2023-07-23T21:02:32.094Z,95.66
2023-07-23T21:04:58.617Z,95.74
2023-07-23T21:07:25.198Z,96.04
2023-07-23T21:09:51.698Z,95.76
2023-07-23T21:12:18.403Z,95.35
2023-07-23T21:14:46.013Z,95.07
2023-07-23T21:17:13.232Z,95.08
2023-07-23T21:19:39.776Z,95.33
2023-07-23T21:22:06.373Z,95.14
2023-07-23T21:24:34.959Z,95.08
2023-07-23T21:27:02.445Z,95.42
2023-07-23T21:29:29.007Z,95.74
2023-07-23T21:31:55.608Z,95.22
2023-07-23T21:34:22.141Z,95.76
2023-07-23T21:36:48.875Z,96.05
2023-07-23T21:39:15.704Z,96.32
2023-07-23T21:41:42.234Z,96.50
2023-07-23T21:44:09.687Z,96.20
2023-07-23T21:46:37.135Z,96.89
2023-07-23T21:49:03.729Z,96.68
2023-07-23T21:51:30.291Z,96.58
2023-07-23T21:53:57.901Z,97.09
2023-07-23T21:56:25.243Z,96.86
2023-07-23T21:58:51.949Z,97.24
2023-07-23T22:01:18.584Z,97.25
2023-07-23T22:03:46.319Z,97.38
2023-07-23T22:06:12.910Z,97.24
2023-07-23T22:08:39.479Z,96.83
2023-07-23T22:11:06.114Z,96.96
2023-07-23T22:13:32.659Z,97.09
2023-07-23T22:15:59.200Z,97.09
2023-07-23T22:18:25.710Z,97.79
2023-07-23T22:20:52.237Z,98.07
2023-07-23T22:23:18.778Z,97.61
2023-07-23T22:25:45.692Z,97.26
2023-07-23T22:28:12.526Z,97.11
2023-07-23T22:30:41.090Z,97.51
2023-07-23T22:33:07.768Z,97.30
2023-07-23T22:35:34.699Z,97.43
2023-07-23T22:38:01.287Z,96.82
2023-07-23T22:40:27.862Z,96.94
2023-07-23T22:43:04.307Z,97.04
2023-07-23T22:45:32.063Z,97.09
2023-07-23T22:47:58.848Z,97.07
2023-07-23T22:50:25.927Z,97.67
2023-07-23T22:52:52.883Z,97.32
2023-07-23T22:55:19.709Z,97.81
2023-07-23T22:57:46.513Z,97.51
2023-07-23T23:00:13.339Z,97.45
2023-07-23T23:02:40.009Z,97.65
2023-07-23T23:05:07.358Z,97.50
2023-07-23T23:07:33.896Z,97.57
2023-07-23T23:10:00.437Z,97.65
2023-07-23T23:12:27.022Z,97.74
2023-07-23T23:14:53.554Z,98.00
2023-07-23T23:17:21.767Z,97.85
2023-07-23T23:19:48.577Z,98.22
2023-07-23T23:22:15.102Z,98.52
2023-07-23T23:24:41.652Z,98.17
2023-07-23T23:27:08.248Z,98.15
2023-07-23T23:29:36.723Z,98.35
2023-07-23T23:32:03.545Z,98.12
2023-07-23T23:34:30.027Z,98.12
2023-07-23T23:36:56.557Z,98.16
2023-07-23T23:39:23.080Z,97.50
2023-07-23T23:41:50.148Z,97.83
2023-07-23T23:44:16.725Z,98.44
2023-07-23T23:46:43.451Z,98.00
2023-07-23T23:49:10.476Z,97.86
2023-07-23T23:51:37.229Z,97.89
2023-07-23T23:54:03.998Z,98.18
2023-07-23T23:56:30.953Z,97.97
2023-07-23T23:58:57.766Z,98.42
